Time;durP1;ratioP1;P1;durP2;ratioP2;P2;SDS_P1;SDS_P2;PMS_P1;PMS_P2;Temp;Humidity;BMP_temperature;BMP_pressure;BME280_temperature;BME280_humidity;BME280_pressure;Samples;Min_cycle;Max_cycle;Signal;HPM_P1;HPM_P2
2022/07/25 00:01:27;;;;;;;5.20;3.30;;;;;;;;;;110371;1259;22479;-35
2022/07/25 00:03:59;;;;;;;5.00;3.40;;;;;;;;;;110398;1259;23183;-35
2022/07/25 00:06:32;;;;;;;6.30;3.40;;;;;;;;;;110432;1251;23816;-35
2022/07/25 00:09:05;;;;;;;6.60;3.60;;;;;;;;;;110405;1259;22474;-35
2022/07/25 00:11:37;;;;;;;4.80;3.30;;;;;;;;;;110392;1259;24174;-35
2022/07/25 00:14:13;;;;;;;5.50;3.10;;;;;;;;;;110418;1258;24678;-35
2022/07/25 00:16:45;;;;;;;5.80;3.60;;;;;;;;;;110390;1259;24175;-35
2022/07/25 00:19:19;;;;;;;5.50;3.80;;;;;;;;;;110400;1251;23683;-35
2022/07/25 00:21:57;;;;;;;5.30;3.20;;;;;;;;;;110423;1251;23853;-35
2022/07/25 00:24:29;;;;;;;4.20;3.20;;;;;;;;;;110427;1251;23688;-35
2022/07/25 00:27:02;;;;;;;4.80;3.50;;;;;;;;;;110421;1252;23959;-35
2022/07/25 00:29:35;;;;;;;4.90;3.60;;;;;;;;;;110396;1258;25314;-35
2022/07/25 00:32:08;;;;;;;4.70;3.60;;;;;;;;;;110335;1259;22811;-35
2022/07/25 00:34:40;;;;;;;4.30;3.30;;;;;;;;;;110327;1259;25829;-35
2022/07/25 00:37:13;;;;;;;5.10;3.30;;;;;;;;;;110334;1253;25378;-35
2022/07/25 00:39:48;;;;;;;4.90;3.30;;;;;;;;;;110330;1253;23874;-35
2022/07/25 00:42:22;;;;;;;5.50;3.20;;;;;;;;;;110332;1259;22478;-35
2022/07/25 00:44:58;;;;;;;4.70;3.30;;;;;;;;;;110341;1259;22612;-35
2022/07/25 00:47:32;;;;;;;5.30;3.20;;;;;;;;;;110356;1253;22578;-35
2022/07/25 00:50:06;;;;;;;4.90;3.30;;;;;;;;;;110333;1259;22494;-35
2022/07/25 00:52:36;;;;;;;;;;;;;;;;;;110359;1259;23851;-35
2022/07/25 00:55:10;;;;;;;4.50;3.30;;;;;;;;;;110342;1253;22520;-34
2022/07/25 00:57:42;;;;;;;4.60;3.40;;;;;;;;;;110356;1259;22507;-36
2022/07/25 01:00:20;;;;;;;5.10;3.30;;;;;;;;;;110335;1253;22475;-35
2022/07/25 01:02:53;;;;;;;4.30;3.00;;;;;;;;;;110323;1253;23804;-35
2022/07/25 01:05:30;;;;;;;6.10;3.70;;;;;;;;;;110306;1253;22474;-35
2022/07/25 01:08:03;;;;;;;4.20;3.30;;;;;;;;;;110325;1253;23806;-34
2022/07/25 01:10:36;;;;;;;5.30;3.50;;;;;;;;;;110331;1259;24327;-34
2022/07/25 01:13:08;;;;;;;;;;;;;;;;;;110369;1259;22593;-35
2022/07/25 01:15:41;;;;;;;4.60;3.10;;;;;;;;;;110334;1253;23988;-35
2022/07/25 01:18:14;;;;;;;5.20;3.50;;;;;;;;;;110343;1259;22509;-35
2022/07/25 01:20:48;;;;;;;5.00;3.30;;;;;;;;;;110337;1259;25194;-35
2022/07/25 01:23:22;;;;;;;4.30;3.20;;;;;;;;;;110353;1253;25325;-35
2022/07/25 01:25:54;;;;;;;4.90;3.70;;;;;;;;;;110331;1259;23682;-35
2022/07/25 01:28:27;;;;;;;6.30;3.80;;;;;;;;;;110345;1259;24139;-35
2022/07/25 01:31:02;;;;;;;5.80;3.50;;;;;;;;;;110370;1252;25188;-35
2022/07/25 01:33:34;;;;;;;4.80;3.70;;;;;;;;;;110342;1253;25856;-35
2022/07/25 01:36:12;;;;;;;4.80;3.60;;;;;;;;;;110353;1253;25264;-35
2022/07/25 01:38:45;;;;;;;4.70;3.30;;;;;;;;;;110329;1259;22537;-35
2022/07/25 01:41:17;;;;;;;4.50;3.30;;;;;;;;;;110331;1259;22668;-35
2022/07/25 01:43:49;;;;;;;4.50;3.10;;;;;;;;;;110347;1253;25348;-35
2022/07/25 01:46:22;;;;;;;4.40;3.20;;;;;;;;;;110336;1259;22497;-35
2022/07/25 01:48:54;;;;;;;5.60;3.50;;;;;;;;;;110343;1259;23908;-35
2022/07/25 01:51:26;;;;;;;5.10;3.50;;;;;;;;;;110335;1259;22463;-34
2022/07/25 01:53:59;;;;;;;4.20;3.20;;;;;;;;;;110353;1259;22614;-35
2022/07/25 01:56:31;;;;;;;4.40;3.40;;;;;;;;;;110346;1259;22661;-35
2022/07/25 01:59:03;;;;;;;4.50;3.30;;;;;;;;;;110346;1259;22561;-34
2022/07/25 02:01:36;;;;;;;5.40;3.40;;;;;;;;;;110354;1253;22494;-35
2022/07/25 02:04:13;;;;;;;5.50;3.20;;;;;;;;;;110326;1259;22651;-35
2022/07/25 02:06:46;;;;;;;6.30;3.50;;;;;;;;;;110323;1252;22684;-35
2022/07/25 02:09:18;;;;;;;4.30;3.30;;;;;;;;;;110344;1259;23927;-35
2022/07/25 02:11:52;;;;;;;4.80;3.40;;;;;;;;;;110336;1259;23814;-35
2022/07/25 02:14:24;;;;;;;5.10;3.20;;;;;;;;;;110330;1252;22503;-35
2022/07/25 02:16:57;;;;;;;5.40;3.40;;;;;;;;;;110325;1259;23795;-35
2022/07/25 02:19:30;;;;;;;4.20;3.20;;;;;;;;;;110327;1259;25296;-35
2022/07/25 02:22:02;;;;;;;4.40;3.10;;;;;;;;;;110362;1259;22634;-35
2022/07/25 02:24:35;;;;;;;4.40;3.20;;;;;;;;;;110328;1259;22855;-35
2022/07/25 02:27:08;;;;;;;4.50;3.40;;;;;;;;;;110341;1253;22483;-35
2022/07/25 02:29:43;;;;;;;4.60;3.40;;;;;;;;;;110339;1259;25326;-35
2022/07/25 02:32:16;;;;;;;5.60;3.30;;;;;;;;;;110414;1260;22426;-35
2022/07/25 02:34:48;;;;;;;4.20;3.10;;;;;;;;;;110405;1259;22491;-35
2022/07/25 02:37:21;;;;;;;4.40;3.20;;;;;;;;;;110421;1253;22627;-35
2022/07/25 02:39:53;;;;;;;4.50;3.40;;;;;;;;;;110412;1259;22676;-35
2022/07/25 02:42:26;;;;;;;4.00;3.00;;;;;;;;;;110423;1260;22678;-35
2022/07/25 02:44:58;;;;;;;4.70;3.30;;;;;;;;;;110431;1251;23852;-35
2022/07/25 02:47:32;;;;;;;4.60;3.30;;;;;;;;;;110438;1260;22813;-35
2022/07/25 02:50:06;;;;;;;5.00;3.40;;;;;;;;;;110448;1259;22784;-35
2022/07/25 02:52:42;;;;;;;4.90;3.30;;;;;;;;;;110459;1258;23846;-35
2022/07/25 02:55:14;;;;;;;5.30;3.20;;;;;;;;;;110443;1259;22728;-35
2022/07/25 02:57:49;;;;;;;5.90;3.10;;;;;;;;;;110404;1260;22482;-35
2022/07/25 03:00:23;;;;;;;5.20;3.30;;;;;;;;;;110429;1259;24177;-33
2022/07/25 03:02:57;;;;;;;6.20;3.00;;;;;;;;;;110447;1253;22936;-34
2022/07/25 03:05:29;;;;;;;4.40;3.30;;;;;;;;;;110496;1251;23843;-35
2022/07/25 03:08:01;;;;;;;4.50;3.10;;;;;;;;;;110456;1251;23841;-35
2022/07/25 03:10:36;;;;;;;4.50;3.00;;;;;;;;;;110432;1251;24877;-35
2022/07/25 03:13:08;;;;;;;4.40;3.40;;;;;;;;;;110466;1251;25189;-35
2022/07/25 03:15:41;;;;;;;5.20;3.60;;;;;;;;;;110419;1252;25365;-35
2022/07/25 03:18:13;;;;;;;5.00;3.30;;;;;;;;;;110441;1260;22482;-35
2022/07/25 03:20:46;;;;;;;4.90;3.40;;;;;;;;;;110452;1259;23546;-35
2022/07/25 03:23:19;;;;;;;4.30;3.00;;;;;;;;;;110417;1253;22420;-35
2022/07/25 03:25:51;;;;;;;4.90;3.60;;;;;;;;;;110440;1260;23850;-35
2022/07/25 03:28:24;;;;;;;5.20;3.40;;;;;;;;;;110419;1251;23686;-35
2022/07/25 03:30:59;;;;;;;4.90;3.30;;;;;;;;;;110404;1259;22436;-35
2022/07/25 03:33:34;;;;;;;5.10;3.50;;;;;;;;;;110353;1252;22662;-35
2022/07/25 03:36:10;;;;;;;5.00;3.60;;;;;;;;;;110357;1259;22502;-35
2022/07/25 03:38:42;;;;;;;4.20;3.30;;;;;;;;;;110377;1253;22478;-35
2022/07/25 03:41:15;;;;;;;5.10;3.70;;;;;;;;;;110377;1253;23854;-34
2022/07/25 03:43:47;;;;;;;5.00;3.40;;;;;;;;;;110387;1259;22488;-35
2022/07/25 03:46:20;;;;;;;4.00;2.80;;;;;;;;;;110381;1259;22419;-35
2022/07/25 03:48:55;;;;;;;4.70;3.30;;;;;;;;;;110394;1259;24164;-35
2022/07/25 03:51:30;;;;;;;4.50;3.40;;;;;;;;;;110359;1253;23852;-35
2022/07/25 03:54:02;;;;;;;4.20;3.10;;;;;;;;;;110369;1259;22522;-35
2022/07/25 03:56:38;;;;;;;5.10;3.50;;;;;;;;;;110357;1253;24286;-35
2022/07/25 03:59:12;;;;;;;4.40;3.30;;;;;;;;;;110395;1253;22545;-35
2022/07/25 04:01:46;;;;;;;4.30;3.20;;;;;;;;;;110271;1260;24337;-35
2022/07/25 04:04:19;;;;;;;4.30;3.10;;;;;;;;;;110368;1259;22485;-35
2022/07/25 04:06:51;;;;;;;5.50;3.30;;;;;;;;;;110369;1259;24117;-35
2022/07/25 04:09:24;;;;;;;6.40;3.40;;;;;;;;;;110342;1259;24103;-35
2022/07/25 04:11:57;;;;;;;4.70;3.60;;;;;;;;;;110371;1259;22421;-35
2022/07/25 04:14:29;;;;;;;5.30;3.50;;;;;;;;;;110365;1253;22506;-33
2022/07/25 04:17:02;;;;;;;4.20;3.10;;;;;;;;;;110502;1252;25162;-34
2022/07/25 04:19:34;;;;;;;5.10;3.60;;;;;;;;;;110360;1259;22494;-35
2022/07/25 04:22:08;;;;;;;4.70;3.10;;;;;;;;;;110361;1259;25241;-35
2022/07/25 04:24:40;;;;;;;4.80;3.30;;;;;;;;;;110386;1259;22662;-36
2022/07/25 04:27:12;;;;;;;5.10;3.30;;;;;;;;;;110337;1259;22478;-36
2022/07/25 04:29:45;;;;;;;4.80;3.40;;;;;;;;;;110331;1259;22504;-33
2022/07/25 04:32:18;;;;;;;4.80;3.60;;;;;;;;;;110343;1259;23879;-34
2022/07/25 04:34:54;;;;;;;5.20;3.20;;;;;;;;;;110331;1259;22586;-35
2022/07/25 04:37:26;;;;;;;5.40;3.30;;;;;;;;;;110361;1259;22414;-35
2022/07/25 04:39:59;;;;;;;4.40;3.30;;;;;;;;;;110365;1259;22413;-35
2022/07/25 04:42:34;;;;;;;4.80;3.20;;;;;;;;;;110347;1259;22471;-35
2022/07/25 04:45:11;;;;;;;5.20;3.50;;;;;;;;;;110377;1259;22520;-35
2022/07/25 04:47:43;;;;;;;5.10;3.70;;;;;;;;;;110362;1259;22499;-35
2022/07/25 04:50:16;;;;;;;4.70;3.50;;;;;;;;;;110348;1252;22485;-35
2022/07/25 04:52:49;;;;;;;4.30;3.30;;;;;;;;;;110360;1253;22483;-35
2022/07/25 04:55:26;;;;;;;5.40;3.30;;;;;;;;;;110362;1259;24109;-35
2022/07/25 04:57:58;;;;;;;6.10;3.80;;;;;;;;;;110346;1259;25164;-35
2022/07/25 05:00:31;;;;;;;5.40;3.10;;;;;;;;;;110359;1253;25233;-35
2022/07/25 05:03:04;;;;;;;5.30;3.70;;;;;;;;;;110382;1253;22494;-35
2022/07/25 05:05:37;;;;;;;4.80;3.00;;;;;;;;;;110384;1253;22870;-35
2022/07/25 05:08:09;;;;;;;5.00;3.50;;;;;;;;;;110291;1259;25156;-35
2022/07/25 05:10:42;;;;;;;5.00;3.50;;;;;;;;;;110375;1259;22493;-35
2022/07/25 05:13:15;;;;;;;4.80;3.60;;;;;;;;;;110378;1253;25871;-35
2022/07/25 05:15:47;;;;;;;5.70;3.70;;;;;;;;;;110485;1259;22723;-35
2022/07/25 05:18:20;;;;;;;4.40;3.20;;;;;;;;;;110377;1259;22612;-35
2022/07/25 05:20:51;;;;;;;;;;;;;;;;;;110408;1259;22451;-35
2022/07/25 05:23:24;;;;;;;5.20;3.70;;;;;;;;;;110338;1253;22487;-35
2022/07/25 05:25:56;;;;;;;4.80;3.50;;;;;;;;;;110322;1259;22419;-33
2022/07/25 05:28:28;;;;;;;5.40;3.60;;;;;;;;;;110338;1259;22478;-35
2022/07/25 05:31:01;;;;;;;5.00;3.60;;;;;;;;;;110351;1253;22559;-35
2022/07/25 05:33:33;;;;;;;4.60;3.70;;;;;;;;;;110340;1259;25318;-35
2022/07/25 05:36:08;;;;;;;5.30;3.70;;;;;;;;;;110370;1259;22472;-35
2022/07/25 05:38:41;;;;;;;5.20;3.40;;;;;;;;;;110368;1252;23837;-35
2022/07/25 05:41:14;;;;;;;5.00;3.70;;;;;;;;;;110315;1259;24155;-35
2022/07/25 05:43:47;;;;;;;4.70;3.80;;;;;;;;;;110347;1259;24603;-35
2022/07/25 05:46:22;;;;;;;5.40;3.60;;;;;;;;;;110293;1259;84191;-35
2022/07/25 05:48:54;;;;;;;5.00;3.60;;;;;;;;;;110323;1259;22729;-35
2022/07/25 05:51:27;;;;;;;4.80;3.50;;;;;;;;;;110350;1259;25328;-35
2022/07/25 05:54:00;;;;;;;4.80;3.70;;;;;;;;;;110345;1259;22481;-35
2022/07/25 05:56:33;;;;;;;6.00;3.60;;;;;;;;;;110346;1259;22487;-35
2022/07/25 05:59:06;;;;;;;5.00;3.50;;;;;;;;;;110333;1259;22560;-34
2022/07/25 06:01:37;;;;;;;;;;;;;;;;;;110380;1259;22719;-34
2022/07/25 06:04:09;;;;;;;4.80;3.60;;;;;;;;;;110372;1254;22784;-35
2022/07/25 06:06:49;;;;;;;5.10;3.70;;;;;;;;;;110340;1253;22478;-35
2022/07/25 06:09:23;;;;;;;5.30;3.50;;;;;;;;;;110361;1259;23036;-35
2022/07/25 06:11:55;;;;;;;4.50;3.50;;;;;;;;;;110393;1259;22478;-35
2022/07/25 06:14:28;;;;;;;4.70;3.70;;;;;;;;;;110326;1259;22593;-35
2022/07/25 06:17:03;;;;;;;5.50;3.80;;;;;;;;;;110361;1259;22403;-35
2022/07/25 06:19:35;;;;;;;4.50;3.40;;;;;;;;;;110358;1259;22493;-35
2022/07/25 06:22:08;;;;;;;5.00;3.70;;;;;;;;;;110339;1253;22499;-35
2022/07/25 06:24:44;;;;;;;4.90;3.30;;;;;;;;;;110399;1259;22486;-35
2022/07/25 06:27:16;;;;;;;5.60;3.80;;;;;;;;;;110335;1259;22888;-35
2022/07/25 06:29:49;;;;;;;4.20;3.30;;;;;;;;;;110353;1259;24118;-35
2022/07/25 06:32:22;;;;;;;4.90;3.30;;;;;;;;;;110343;1259;22480;-35
2022/07/25 06:34:56;;;;;;;4.90;3.00;;;;;;;;;;110330;1253;22921;-35
2022/07/25 06:37:29;;;;;;;5.00;3.80;;;;;;;;;;110351;1253;23739;-35
2022/07/25 06:40:01;;;;;;;4.60;3.20;;;;;;;;;;110348;1253;22469;-35
2022/07/25 06:42:37;;;;;;;5.20;4.00;;;;;;;;;;110358;1253;25168;-35
2022/07/25 06:45:13;;;;;;;4.20;3.00;;;;;;;;;;110368;1259;24159;-35
2022/07/25 06:47:48;;;;;;;5.00;3.50;;;;;;;;;;110341;1259;25169;-35
2022/07/25 06:50:21;;;;;;;4.50;3.00;;;;;;;;;;110400;1254;22526;-35
2022/07/25 06:52:54;;;;;;;5.10;3.20;;;;;;;;;;110347;1259;22863;-33
2022/07/25 06:55:26;;;;;;;4.90;3.40;;;;;;;;;;110400;1253;22907;-35
2022/07/25 06:57:58;;;;;;;4.50;3.40;;;;;;;;;;110371;1259;22419;-35
2022/07/25 07:00:31;;;;;;;4.50;2.90;;;;;;;;;;110381;1259;23802;-35
2022/07/25 07:03:04;;;;;;;5.20;3.20;;;;;;;;;;110365;1259;23300;-35
2022/07/25 07:05:37;;;;;;;5.00;3.30;;;;;;;;;;110370;1259;23818;-35
2022/07/25 07:08:11;;;;;;;4.20;3.20;;;;;;;;;;110369;1253;23632;-35
2022/07/25 07:10:44;;;;;;;4.90;3.10;;;;;;;;;;110326;1253;23802;-35
2022/07/25 07:13:17;;;;;;;5.00;3.30;;;;;;;;;;110386;1259;22713;-35
2022/07/25 07:15:49;;;;;;;;;;;;;;;;;;110345;1259;22782;-35
2022/07/25 07:18:23;;;;;;;4.90;3.40;;;;;;;;;;110245;1259;24164;-35
2022/07/25 07:20:59;;;;;;;5.20;3.40;;;;;;;;;;110359;1253;22494;-35
2022/07/25 07:23:31;;;;;;;4.90;3.40;;;;;;;;;;110359;1259;22489;-35
2022/07/25 07:26:04;;;;;;;5.30;3.40;;;;;;;;;;110347;1259;22432;-35
2022/07/25 07:28:36;;;;;;;4.70;3.40;;;;;;;;;;110348;1252;22775;-35
2022/07/25 07:31:09;;;;;;;4.40;3.10;;;;;;;;;;110346;1259;22465;-35
2022/07/25 07:33:42;;;;;;;4.30;3.30;;;;;;;;;;110365;1259;24145;-35
2022/07/25 07:36:14;;;;;;;4.60;3.40;;;;;;;;;;110369;1259;23817;-35
2022/07/25 07:38:47;;;;;;;4.40;2.80;;;;;;;;;;110328;1259;22788;-35
2022/07/25 07:41:20;;;;;;;5.00;3.10;;;;;;;;;;110337;1259;22792;-35
2022/07/25 07:43:52;;;;;;;5.60;3.30;;;;;;;;;;110346;1259;22857;-35
2022/07/25 07:46:24;;;;;;;4.90;3.00;;;;;;;;;;110338;1253;23850;-35
2022/07/25 07:48:59;;;;;;;4.30;3.00;;;;;;;;;;110359;1259;22483;-35
2022/07/25 07:51:38;;;;;;;5.80;3.20;;;;;;;;;;110569;1254;23838;31
2022/07/25 07:57:12;;;;;;;4.60;2.70;;;;;;;;;;109521;1267;23910;-41
2022/07/25 07:59:44;;;;;;;4.40;2.90;;;;;;;;;;110189;1259;22596;-37
2022/07/25 08:02:19;;;;;;;4.30;2.70;;;;;;;;;;110268;1259;22491;-39
2022/07/25 08:04:51;;;;;;;5.10;3.40;;;;;;;;;;110280;1259;22484;-37
2022/07/25 08:07:23;;;;;;;4.50;3.20;;;;;;;;;;110281;1259;22679;-35
2022/07/25 08:09:56;;;;;;;4.20;2.80;;;;;;;;;;110272;1259;22597;-36
2022/07/25 08:12:29;;;;;;;5.90;3.40;;;;;;;;;;110271;1254;22495;-35
2022/07/25 08:15:01;;;;;;;4.90;3.30;;;;;;;;;;110269;1259;22721;-40
2022/07/25 08:17:33;;;;;;;7.30;3.80;;;;;;;;;;110276;1259;22488;-39
2022/07/25 08:20:08;;;;;;;;;;;;;;;;;;110302;1259;22487;-33
2022/07/25 08:22:41;;;;;;;;;;;;;;;;;;110326;1253;25191;-33
2022/07/25 08:25:18;;;;;;;6.60;4.20;;;;;;;;;;110298;1260;22477;-37
2022/07/25 08:27:52;;;;;;;6.10;3.80;;;;;;;;;;110296;1259;25255;-35
2022/07/25 08:30:25;;;;;;;6.10;3.80;;;;;;;;;;110303;1259;23803;-36
2022/07/25 08:32:59;;;;;;;6.00;3.50;;;;;;;;;;110305;1253;22471;-33
2022/07/25 08:35:33;;;;;;;7.30;3.80;;;;;;;;;;110292;1260;22681;-33
2022/07/25 08:38:06;;;;;;;8.30;3.60;;;;;;;;;;110256;1259;22499;-36
2022/07/25 08:40:38;;;;;;;;;;;;;;;;;;110288;1259;22668;-37
2022/07/25 08:43:14;;;;;;;6.10;3.90;;;;;;;;;;110278;1260;23026;-36
2022/07/25 08:45:49;;;;;;;5.80;3.60;;;;;;;;;;110259;1259;22432;-37
2022/07/25 08:48:24;;;;;;;6.30;3.90;;;;;;;;;;110262;1259;23791;-37
2022/07/25 08:51:00;;;;;;;5.40;3.60;;;;;;;;;;110277;1253;22485;-37
2022/07/25 08:53:33;;;;;;;7.30;4.00;;;;;;;;;;110280;1259;22411;-35
2022/07/25 08:56:08;;;;;;;7.10;4.00;;;;;;;;;;110297;1259;22782;-36
2022/07/25 08:58:41;;;;;;;6.10;3.60;;;;;;;;;;110313;1253;25362;-36
2022/07/25 09:01:14;;;;;;;5.00;3.30;;;;;;;;;;110309;1254;22816;-34
2022/07/25 09:03:46;;;;;;;5.10;3.30;;;;;;;;;;110201;1259;22478;-35
2022/07/25 09:06:22;;;;;;;6.40;3.20;;;;;;;;;;110246;1260;22485;-37
2022/07/25 09:08:57;;;;;;;5.10;3.30;;;;;;;;;;110256;1260;23824;-34
2022/07/25 09:11:38;;;;;;;4.50;2.90;;;;;;;;;;110268;1253;23803;-40
2022/07/25 09:14:12;;;;;;;6.80;3.60;;;;;;;;;;110199;1260;22600;-40
2022/07/25 09:16:47;;;;;;;5.30;3.40;;;;;;;;;;110284;1253;22506;-37
2022/07/25 09:19:23;;;;;;;5.50;3.30;;;;;;;;;;110239;1260;22474;-40
2022/07/25 09:22:09;;;;;;;6.80;3.30;;;;;;;;;;110270;1260;22491;-41
2022/07/25 09:24:48;;;;;;;4.90;3.10;;;;;;;;;;110257;1260;22716;-36
2022/07/25 09:27:20;;;;;;;4.90;2.70;;;;;;;;;;110271;1260;23752;-37
2022/07/25 09:29:52;;;;;;;4.90;3.40;;;;;;;;;;110221;1260;23845;-36
2022/07/25 09:32:25;;;;;;;5.40;2.90;;;;;;;;;;110266;1260;22666;-38
2022/07/25 09:34:57;;;;;;;4.80;2.60;;;;;;;;;;110260;1260;23798;-38
2022/07/25 09:37:29;;;;;;;4.60;2.90;;;;;;;;;;110259;1260;24156;-38
2022/07/25 09:40:14;;;;;;;5.80;2.80;;;;;;;;;;110258;1260;22500;-40
2022/07/25 09:42:52;;;;;;;4.80;2.80;;;;;;;;;;110248;1260;23677;-40
2022/07/25 09:45:25;;;;;;;4.20;2.50;;;;;;;;;;110242;1254;22481;-36
2022/07/25 09:48:00;;;;;;;;;;;;;;;;;;110276;1260;22454;-38
2022/07/25 09:50:34;;;;;;;4.50;2.50;;;;;;;;;;110242;1260;22498;-37
2022/07/25 09:53:06;;;;;;;4.10;2.40;;;;;;;;;;110260;1260;24170;-37
2022/07/25 09:55:41;;;;;;;5.00;2.70;;;;;;;;;;110295;1260;23802;-39
2022/07/25 09:58:14;;;;;;;4.00;2.40;;;;;;;;;;110232;1253;25176;-37
2022/07/25 10:00:47;;;;;;;4.60;2.70;;;;;;;;;;110261;1259;24166;-36
2022/07/25 10:03:36;;;;;;;3.90;2.60;;;;;;;;;;110298;1259;23851;-37
2022/07/25 10:06:21;;;;;;;3.70;2.20;;;;;;;;;;110292;1259;24177;-36
2022/07/25 10:08:54;;;;;;;4.40;2.50;;;;;;;;;;110311;1252;22473;-36
2022/07/25 10:11:29;;;;;;;3.80;2.30;;;;;;;;;;110290;1254;23701;-36
2022/07/25 10:14:13;;;;;;;5.10;2.50;;;;;;;;;;110268;1259;22481;-36
2022/07/25 10:16:49;;;;;;;4.70;2.30;;;;;;;;;;110317;1259;24157;-45
2022/07/25 10:19:44;;;;;;;5.80;2.80;;;;;;;;;;110230;1253;22598;-35
2022/07/25 10:22:17;;;;;;;4.50;2.40;;;;;;;;;;110286;1254;22489;-35
2022/07/25 10:24:50;;;;;;;5.10;2.70;;;;;;;;;;110311;1259;24192;-35
2022/07/25 10:27:24;;;;;;;;;;;;;;;;;;110339;1259;22607;-35
2022/07/25 10:29:57;;;;;;;4.90;2.50;;;;;;;;;;110315;1253;22481;-35
2022/07/25 10:32:34;;;;;;;4.00;2.30;;;;;;;;;;110323;1259;22726;-35
2022/07/25 10:35:17;;;;;;;5.00;2.50;;;;;;;;;;110336;1253;23893;-35
2022/07/25 10:37:52;;;;;;;4.40;2.30;;;;;;;;;;110307;1259;22481;-36
2022/07/25 10:40:36;;;;;;;4.70;2.40;;;;;;;;;;110304;1259;22536;-36
2022/07/25 10:43:14;;;;;;;4.80;2.50;;;;;;;;;;110318;1259;22529;-35
2022/07/25 10:45:51;;;;;;;4.20;2.30;;;;;;;;;;110319;1253;24045;-35
2022/07/25 10:48:30;;;;;;;3.70;2.20;;;;;;;;;;110330;1259;24167;-35
2022/07/25 10:51:04;;;;;;;4.30;2.60;;;;;;;;;;110350;1253;22619;-35
2022/07/25 10:53:38;;;;;;;3.60;2.00;;;;;;;;;;110267;1253;22705;-35
2022/07/25 10:56:15;;;;;;;3.60;2.20;;;;;;;;;;110288;1260;22484;-35
2022/07/25 10:58:51;;;;;;;3.70;2.10;;;;;;;;;;110258;1260;22851;-35
2022/07/25 11:01:26;;;;;;;4.70;2.10;;;;;;;;;;110312;1256;24178;-35
2022/07/25 11:04:02;;;;;;;4.50;2.10;;;;;;;;;;110262;1260;22494;-35
2022/07/25 11:06:38;;;;;;;3.80;2.20;;;;;;;;;;110291;1260;22505;-35
2022/07/25 11:09:20;;;;;;;4.00;2.30;;;;;;;;;;110326;1260;22803;-35
2022/07/25 11:11:54;;;;;;;4.30;2.50;;;;;;;;;;110293;1260;22491;-35
2022/07/25 11:14:31;;;;;;;3.70;2.10;;;;;;;;;;110277;1253;25413;-35
2022/07/25 11:17:18;;;;;;;4.30;2.20;;;;;;;;;;110320;1253;22482;-35
2022/07/25 11:20:00;;;;;;;3.90;2.20;;;;;;;;;;110237;1260;22488;-35
2022/07/25 11:22:34;;;;;;;3.60;2.10;;;;;;;;;;110272;1260;23817;-35
2022/07/25 11:25:13;;;;;;;4.00;2.10;;;;;;;;;;110280;1253;22486;-35
2022/07/25 11:27:49;;;;;;;4.00;2.30;;;;;;;;;;110294;1259;23669;-36
2022/07/25 11:30:22;;;;;;;3.80;2.10;;;;;;;;;;110313;1259;23559;-36
2022/07/25 11:32:57;;;;;;;4.40;2.20;;;;;;;;;;110321;1259;24173;-36
2022/07/25 11:35:33;;;;;;;3.60;2.10;;;;;;;;;;110372;1259;22510;-36
2022/07/25 11:38:06;;;;;;;4.60;2.30;;;;;;;;;;110322;1259;22540;-36
2022/07/25 11:40:45;;;;;;;4.50;2.30;;;;;;;;;;110330;1259;24148;-36
2022/07/25 11:43:26;;;;;;;4.80;2.20;;;;;;;;;;110249;1254;25172;-37
2022/07/25 11:46:06;;;;;;;5.00;2.40;;;;;;;;;;110323;1259;22707;-36
2022/07/25 11:48:41;;;;;;;3.40;2.10;;;;;;;;;;110327;1259;22481;-39
2022/07/25 11:51:17;;;;;;;4.70;2.30;;;;;;;;;;110336;1259;24144;-37
2022/07/25 11:53:52;;;;;;;4.30;2.30;;;;;;;;;;110331;1253;22495;-38
2022/07/25 11:56:25;;;;;;;4.50;2.30;;;;;;;;;;110328;1259;24173;-36
2022/07/25 11:59:02;;;;;;;4.10;2.30;;;;;;;;;;110343;1259;22500;-37
2022/07/25 12:01:40;;;;;;;3.80;2.20;;;;;;;;;;110272;1259;24298;-39
2022/07/25 12:04:27;;;;;;;3.50;2.10;;;;;;;;;;110307;1259;24166;-39
2022/07/25 12:07:06;;;;;;;4.00;2.40;;;;;;;;;;110305;1252;22492;-42
2022/07/25 12:09:39;;;;;;;5.10;3.20;;;;;;;;;;110321;1259;22663;-37
2022/07/25 12:12:12;;;;;;;4.70;2.40;;;;;;;;;;110362;1259;22478;-36
2022/07/25 12:14:47;;;;;;;3.80;2.20;;;;;;;;;;110349;1253;23970;-36
2022/07/25 12:17:20;;;;;;;3.30;1.90;;;;;;;;;;110341;1253;22857;-37
2022/07/25 12:19:52;;;;;;;5.10;2.50;;;;;;;;;;110314;1259;22491;-36
2022/07/25 12:22:25;;;;;;;3.60;2.30;;;;;;;;;;110349;1259;22952;-38
2022/07/25 12:24:58;;;;;;;4.00;2.40;;;;;;;;;;110331;1259;22410;-37
2022/07/25 12:27:30;;;;;;;3.40;2.10;;;;;;;;;;110308;1259;22509;-37
2022/07/25 12:30:04;;;;;;;4.20;2.40;;;;;;;;;;110303;1259;22544;-38
2022/07/25 12:32:37;;;;;;;4.20;2.40;;;;;;;;;;110325;1259;22740;-38
2022/07/25 12:35:14;;;;;;;3.50;2.20;;;;;;;;;;110332;1259;22492;-38
2022/07/25 12:37:46;;;;;;;3.60;2.20;;;;;;;;;;110336;1259;22525;-38
2022/07/25 12:40:19;;;;;;;3.50;2.20;;;;;;;;;;110320;1259;22476;-39
2022/07/25 12:42:52;;;;;;;4.00;2.40;;;;;;;;;;110311;1259;22474;-38
2022/07/25 12:45:22;;;;;;;;;;;;;;;;;;110295;1259;22564;-38
2022/07/25 12:47:55;;;;;;;3.50;2.20;;;;;;;;;;110320;1259;24167;-38
2022/07/25 12:50:30;;;;;;;3.70;2.30;;;;;;;;;;110320;1259;22434;-38
2022/07/25 12:53:03;;;;;;;3.90;2.10;;;;;;;;;;110319;1259;22464;-38
2022/07/25 12:55:36;;;;;;;3.30;2.20;;;;;;;;;;110360;1259;22630;-38
2022/07/25 12:58:08;;;;;;;4.00;2.20;;;;;;;;;;110295;1259;22622;-38
2022/07/25 13:00:44;;;;;;;3.10;1.90;;;;;;;;;;110334;1259;22494;-38
2022/07/25 13:03:17;;;;;;;3.90;2.20;;;;;;;;;;110156;1259;22835;-38
2022/07/25 13:05:50;;;;;;;3.70;2.30;;;;;;;;;;110302;1259;22502;-38
2022/07/25 13:08:24;;;;;;;3.90;2.40;;;;;;;;;;110296;1259;24140;-38
2022/07/25 13:10:56;;;;;;;4.00;2.40;;;;;;;;;;110328;1259;25875;-38
2022/07/25 13:13:29;;;;;;;4.20;2.30;;;;;;;;;;110320;1252;22725;-38
2022/07/25 13:16:03;;;;;;;3.00;1.90;;;;;;;;;;110325;1259;22473;-34
